createdAt,value
2018-08-09T00:00:17.448Z,0
2018-08-09T00:00:57.925Z,0
2018-08-09T00:01:38.485Z,0
2018-08-09T00:02:18.772Z,0
2018-08-09T00:02:59.225Z,0
2018-08-09T00:03:39.620Z,0
2018-08-09T00:04:20.183Z,0
2018-08-09T00:05:00.539Z,0
2018-08-09T00:05:40.946Z,0
2018-08-09T00:06:21.580Z,0
2018-08-09T00:07:01.996Z,0
2018-08-09T00:07:42.265Z,0
2018-08-09T00:08:22.714Z,0
2018-08-09T00:09:03.175Z,0
2018-08-09T00:09:44.755Z,0
2018-08-09T00:10:24.977Z,0
2018-08-09T00:11:06.128Z,0
2018-08-09T00:11:45.748Z,0
2018-08-09T00:12:26.301Z,0
2018-08-09T00:13:08.330Z,0
2018-08-09T00:13:48.653Z,0
2018-08-09T00:14:29.126Z,0
2018-08-09T00:15:09.507Z,0
2018-08-09T00:15:49.908Z,0
2018-08-09T00:16:30.293Z,0
2018-08-09T00:17:10.698Z,0
2018-08-09T00:17:51.080Z,0
2018-08-09T00:18:31.565Z,0
2018-08-09T00:19:11.983Z,0
2018-08-09T00:19:52.401Z,0
2018-08-09T00:20:32.736Z,0
2018-08-09T00:21:13.172Z,0
2018-08-09T00:21:53.575Z,0
2018-08-09T00:22:33.976Z,0
2018-08-09T00:23:14.423Z,0
2018-08-09T00:23:54.979Z,0
2018-08-09T00:24:35.277Z,0
2018-08-09T00:25:15.689Z,0
2018-08-09T00:25:56.108Z,0
2018-08-09T00:26:36.568Z,0
2018-08-09T00:27:16.980Z,0
2018-08-09T00:27:57.443Z,0
2018-08-09T00:28:37.891Z,0
2018-08-09T00:29:18.263Z,0
2018-08-09T00:29:58.651Z,0
2018-08-09T00:30:39.057Z,0
2018-08-09T00:31:19.472Z,0
2018-08-09T00:31:59.884Z,0
2018-08-09T00:32:40.309Z,0
2018-08-09T00:33:20.727Z,0
2018-08-09T00:34:01.171Z,0
2018-08-09T00:34:41.593Z,0
2018-08-09T00:35:21.959Z,0
2018-08-09T00:36:02.434Z,0
2018-08-09T00:36:42.784Z,0
2018-08-09T00:37:23.230Z,0
2018-08-09T00:38:03.660Z,0
2018-08-09T00:38:44.097Z,0
2018-08-09T00:39:24.585Z,0
2018-08-09T00:40:04.933Z,0
2018-08-09T00:40:45.344Z,0
2018-08-09T00:41:25.707Z,0
2018-08-09T00:42:06.166Z,0
2018-08-09T00:42:46.608Z,0
2018-08-09T00:43:27.090Z,0
2018-08-09T00:44:07.532Z,0
2018-08-09T00:44:47.961Z,0
2018-08-09T00:45:30.259Z,0
2018-08-09T00:46:10.543Z,0
2018-08-09T00:46:50.950Z,0
2018-08-09T00:47:31.270Z,0
2018-08-09T00:48:11.789Z,0
2018-08-09T00:48:52.116Z,0
2018-08-09T00:49:32.504Z,0
2018-08-09T00:50:12.970Z,0
2018-08-09T00:50:53.466Z,0
2018-08-09T00:51:33.722Z,0
2018-08-09T00:52:14.074Z,0
2018-08-09T00:52:54.526Z,0
2018-08-09T00:53:34.896Z,0
2018-08-09T00:54:15.326Z,0
2018-08-09T00:54:55.820Z,0
2018-08-09T00:57:23.684Z,0
2018-08-09T00:58:04.041Z,0
2018-08-09T00:58:44.490Z,0
2018-08-09T00:59:24.837Z,0
2018-08-09T01:00:05.330Z,0
2018-08-09T01:00:45.692Z,0
2018-08-09T01:01:26.098Z,0
2018-08-09T01:02:06.539Z,0
2018-08-09T01:02:46.929Z,0
2018-08-09T01:03:27.381Z,0
2018-08-09T01:04:07.751Z,0
2018-08-09T01:04:48.162Z,0
2018-08-09T01:05:28.561Z,0
2018-08-09T01:06:08.982Z,0
2018-08-09T01:06:49.364Z,0
2018-08-09T01:07:29.861Z,0
2018-08-09T01:08:10.286Z,0
2018-08-09T01:08:50.695Z,0
2018-08-09T01:09:31.062Z,0
2018-08-09T01:10:11.489Z,0
2018-08-09T01:10:51.942Z,0
2018-08-09T01:11:32.273Z,0
2018-08-09T01:12:12.741Z,0
2018-08-09T01:12:53.196Z,0
2018-08-09T01:13:33.498Z,0
2018-08-09T01:14:13.908Z,0
2018-08-09T01:14:54.348Z,0
2018-08-09T01:15:34.684Z,0
2018-08-09T01:16:15.076Z,0
2018-08-09T01:16:55.491Z,0
2018-08-09T01:17:35.879Z,0
2018-08-09T01:18:16.317Z,0
2018-08-09T01:18:56.730Z,0
2018-08-09T01:19:37.194Z,0
2018-08-09T01:20:17.597Z,0
2018-08-09T01:20:58.003Z,0
2018-08-09T01:21:38.467Z,0
2018-08-09T01:22:18.860Z,0
2018-08-09T01:22:59.328Z,0
2018-08-09T01:23:39.752Z,0
2018-08-09T01:24:20.139Z,0
2018-08-09T01:25:00.560Z,0
2018-08-09T01:25:40.952Z,0
2018-08-09T01:26:21.324Z,0
2018-08-09T01:27:01.815Z,0
2018-08-09T01:27:42.239Z,0
2018-08-09T01:28:22.628Z,0
2018-08-09T01:29:03.044Z,0
2018-08-09T01:29:43.470Z,0
2018-08-09T01:30:23.926Z,0
2018-08-09T01:31:04.309Z,0
2018-08-09T01:31:44.706Z,0
2018-08-09T01:32:25.126Z,0
2018-08-09T01:33:05.547Z,0
2018-08-09T01:33:45.940Z,0
2018-08-09T01:34:26.392Z,0
2018-08-09T01:35:06.779Z,0
2018-08-09T01:35:47.211Z,0
2018-08-09T01:36:27.667Z,0
2018-08-09T01:37:07.989Z,0
2018-08-09T01:37:48.431Z,0
2018-08-09T01:38:28.774Z,0
2018-08-09T01:39:09.230Z,0
2018-08-09T01:39:49.599Z,0
2018-08-09T01:40:29.985Z,0
2018-08-09T01:41:10.389Z,0
2018-08-09T01:41:50.830Z,0
2018-08-09T01:42:31.199Z,0
2018-08-09T01:43:11.626Z,0
2018-08-09T01:43:52.068Z,0
2018-08-09T01:44:32.430Z,0
2018-08-09T01:45:12.841Z,0
2018-08-09T01:45:53.269Z,0
2018-08-09T01:46:33.609Z,0
2018-08-09T01:47:14.064Z,0
2018-08-09T01:47:54.447Z,0
2018-08-09T01:48:34.852Z,0
2018-08-09T01:49:15.307Z,0
2018-08-09T01:49:55.772Z,0
2018-08-09T01:50:36.196Z,0
2018-08-09T01:51:16.555Z,0
2018-08-09T01:51:56.981Z,0
2018-08-09T01:52:37.333Z,0
2018-08-09T01:53:17.841Z,0
2018-08-09T01:53:58.268Z,0
2018-08-09T01:54:38.592Z,0
2018-08-09T01:55:19.007Z,0
2018-08-09T01:55:59.486Z,0
2018-08-09T01:56:39.872Z,0
2018-08-09T01:57:20.297Z,0
2018-08-09T01:58:00.666Z,0
2018-08-09T01:58:41.107Z,0
2018-08-09T01:59:21.632Z,0
2018-08-09T02:00:02.068Z,0
2018-08-09T02:00:42.793Z,0
2018-08-09T02:01:23.248Z,0
2018-08-09T02:02:03.754Z,0
2018-08-09T02:02:44.228Z,0
2018-08-09T02:03:24.673Z,0
2018-08-09T02:04:05.049Z,0
2018-08-09T02:04:45.483Z,0
2018-08-09T02:05:25.959Z,0
2018-08-09T02:06:06.538Z,0
2018-08-09T02:06:46.862Z,0
2018-08-09T02:07:27.441Z,0
2018-08-09T02:08:07.830Z,0
2018-08-09T02:08:48.405Z,0
2018-08-09T02:09:28.828Z,0
2018-08-09T02:10:09.331Z,0
2018-08-09T02:10:49.751Z,0
2018-08-09T02:11:30.197Z,0
2018-08-09T02:12:11.002Z,0
2018-08-09T02:12:51.175Z,0
2018-08-09T02:13:31.693Z,0
2018-08-09T02:14:12.137Z,0
2018-08-09T02:14:52.868Z,0
2018-08-09T02:15:33.193Z,0
2018-08-09T02:16:13.744Z,0
2018-08-09T02:16:54.349Z,0
2018-08-09T02:17:34.732Z,0
2018-08-09T02:18:15.141Z,0
2018-08-09T02:18:55.545Z,0
2018-08-09T02:19:36.031Z,0
2018-08-09T02:20:16.490Z,0
2018-08-09T02:20:56.902Z,0
2018-08-09T02:21:37.268Z,0
2018-08-09T02:22:17.715Z,0
2018-08-09T02:22:58.405Z,0
2018-08-09T02:23:38.539Z,0
2018-08-09T02:24:19.097Z,0
2018-08-09T02:24:59.414Z,0
2018-08-09T02:25:39.836Z,0
2018-08-09T02:26:20.326Z,0
2018-08-09T02:27:00.652Z,0
2018-08-09T02:27:41.144Z,0
2018-08-09T02:28:21.439Z,0
2018-08-09T02:29:01.862Z,0
2018-08-09T02:29:42.379Z,0
2018-08-09T02:30:22.799Z,0
2018-08-09T02:31:03.151Z,0
2018-08-09T02:31:43.620Z,0
2018-08-09T02:32:24.060Z,0
2018-08-09T02:33:04.772Z,0
2018-08-09T02:33:45.034Z,0
2018-08-09T02:34:25.829Z,0
2018-08-09T02:35:05.944Z,0
2018-08-09T02:35:46.481Z,0
2018-08-09T02:36:26.909Z,0
2018-08-09T02:37:07.490Z,0
2018-08-09T02:37:47.870Z,0
2018-08-09T02:38:28.253Z,0
2018-08-09T02:39:08.624Z,0
2018-08-09T02:39:49.003Z,0
2018-08-09T02:40:29.408Z,0
2018-08-09T02:41:09.886Z,0
2018-08-09T02:41:50.378Z,0
2018-08-09T02:42:30.757Z,0
2018-08-09T02:43:11.141Z,0
2018-08-09T02:43:51.579Z,0
2018-08-09T02:44:32.064Z,0
2018-08-09T02:45:12.625Z,0
2018-08-09T02:45:52.974Z,0
2018-08-09T02:46:33.452Z,0
2018-08-09T02:47:13.778Z,0
2018-08-09T02:47:54.193Z,0
2018-08-09T02:48:34.575Z,0
2018-08-09T02:49:15.034Z,0
2018-08-09T02:49:55.528Z,0
2018-08-09T02:50:35.972Z,0
2018-08-09T02:51:16.280Z,0
2018-08-09T02:51:56.633Z,0
2018-08-09T02:52:36.987Z,0
2018-08-09T02:53:17.398Z,0
2018-08-09T02:53:57.814Z,0
2018-08-09T02:54:38.257Z,0
2018-08-09T02:55:18.618Z,0
2018-08-09T02:55:59.097Z,0
2018-08-09T02:56:39.483Z,0
2018-08-09T02:57:19.887Z,0
2018-08-09T02:58:00.298Z,0
2018-08-09T02:58:40.684Z,0
2018-08-09T02:59:21.180Z,0
2018-08-09T03:00:01.537Z,0
2018-08-09T03:00:41.939Z,0
2018-08-09T03:01:22.291Z,0
2018-08-09T03:02:02.762Z,0
2018-08-09T03:02:43.105Z,0
2018-08-09T03:03:23.522Z,0
2018-08-09T03:04:03.932Z,0
2018-08-09T03:04:44.240Z,0
2018-08-09T03:05:24.762Z,0
2018-08-09T03:06:05.103Z,0
2018-08-09T03:06:45.541Z,0
2018-08-09T03:07:26.259Z,0
2018-08-09T03:08:06.704Z,0
2018-08-09T03:08:47.230Z,0
2018-08-09T03:09:28.018Z,0
2018-08-09T03:10:08.474Z,0
2018-08-09T03:10:48.903Z,0
2018-08-09T03:11:29.205Z,0
2018-08-09T03:12:09.648Z,0
2018-08-09T03:12:50.156Z,0
2018-08-09T03:13:30.636Z,0
2018-08-09T03:14:11.124Z,0
2018-08-09T03:14:51.410Z,0
2018-08-09T03:15:31.772Z,0
2018-08-09T03:16:12.296Z,0
2018-08-09T03:16:52.678Z,0
2018-08-09T03:17:33.055Z,0
2018-08-09T03:18:13.427Z,0
2018-08-09T03:18:54.138Z,0
2018-08-09T03:19:34.739Z,0
2018-08-09T03:20:15.027Z,0
2018-08-09T03:20:55.548Z,0
2018-08-09T03:21:35.907Z,0
2018-08-09T03:22:16.351Z,0
2018-08-09T03:22:56.671Z,0
2018-08-09T03:23:37.108Z,0
2018-08-09T03:24:17.679Z,0
2018-08-09T03:24:58.147Z,0
2018-08-09T03:25:38.564Z,0
2018-08-09T03:26:19.033Z,0
2018-08-09T03:26:59.558Z,0
2018-08-09T03:27:39.944Z,0
2018-08-09T03:28:20.306Z,0
2018-08-09T03:29:00.644Z,0
2018-08-09T03:29:41.337Z,0
2018-08-09T03:30:21.666Z,0
2018-08-09T03:31:02.052Z,0
2018-08-09T03:31:42.668Z,0
2018-08-09T03:32:23.380Z,0
2018-08-09T03:33:03.739Z,0
2018-08-09T03:33:44.134Z,0
2018-08-09T03:34:24.655Z,0
2018-08-09T03:35:05.148Z,0
2018-08-09T03:35:45.584Z,0
2018-08-09T03:36:25.935Z,0
2018-08-09T03:37:06.207Z,0
2018-08-09T03:37:46.574Z,0
2018-08-09T03:38:26.946Z,0
2018-08-09T03:39:07.408Z,0
2018-08-09T03:39:47.850Z,0
2018-08-09T03:40:28.191Z,0
2018-08-09T03:41:08.639Z,0
2018-08-09T03:41:48.996Z,0
2018-08-09T03:42:29.508Z,0
2018-08-09T03:43:09.848Z,0
2018-08-09T03:43:50.263Z,0
2018-08-09T03:44:30.665Z,0
2018-08-09T03:45:11.099Z,0
2018-08-09T03:45:51.653Z,0
2018-08-09T03:46:31.997Z,0
2018-08-09T03:47:12.489Z,0
2018-08-09T03:47:52.911Z,0
2018-08-09T03:48:33.330Z,0
2018-08-09T03:49:13.760Z,0
2018-08-09T03:49:54.145Z,0
2018-08-09T03:50:34.626Z,0
2018-08-09T03:51:14.940Z,0
2018-08-09T03:51:55.369Z,0
2018-08-09T03:52:35.858Z,0
2018-08-09T03:53:16.208Z,0
2018-08-09T03:53:56.701Z,0
2018-08-09T03:54:37.193Z,0
2018-08-09T03:55:17.772Z,0
2018-08-09T03:55:58.307Z,0
2018-08-09T03:56:38.779Z,0
2018-08-09T03:57:19.185Z,0
2018-08-09T03:57:59.614Z,0
2018-08-09T03:58:40.045Z,0
2018-08-09T03:59:20.533Z,0
2018-08-09T04:00:00.959Z,0
2018-08-09T04:00:41.438Z,0
2018-08-09T04:01:22.109Z,0
2018-08-09T04:02:02.258Z,0
2018-08-09T04:02:42.790Z,0
2018-08-09T04:03:23.184Z,0
2018-08-09T04:04:03.982Z,0
2018-08-09T04:04:44.701Z,0
2018-08-09T04:05:25.589Z,0
2018-08-09T04:06:05.932Z,0
2018-08-09T04:06:46.413Z,0
2018-08-09T04:07:26.644Z,0
2018-08-09T04:08:07.209Z,0
2018-08-09T04:08:47.507Z,0
2018-08-09T04:09:27.827Z,0
2018-08-09T04:10:10.770Z,0
2018-08-09T04:10:51.115Z,0
2018-08-09T04:11:31.681Z,0
2018-08-09T04:12:13.668Z,0
2018-08-09T04:12:54.094Z,0
2018-08-09T04:13:34.305Z,0
2018-08-09T04:14:14.720Z,0
2018-08-09T04:14:55.411Z,0
2018-08-09T04:15:36.262Z,0
2018-08-09T04:16:17.715Z,0
2018-08-09T04:16:58.064Z,0
2018-08-09T04:17:39.211Z,0
2018-08-09T04:18:20.793Z,0
2018-08-09T04:19:00.776Z,0
2018-08-09T04:19:41.356Z,0
2018-08-09T04:20:21.912Z,0
2018-08-09T04:21:02.462Z,0
2018-08-09T04:21:42.935Z,0
2018-08-09T04:22:23.275Z,0
2018-08-09T04:23:03.720Z,0
2018-08-09T04:23:44.217Z,0
2018-08-09T04:24:24.515Z,0
2018-08-09T04:25:04.962Z,0
2018-08-09T04:25:45.444Z,0
2018-08-09T04:26:25.880Z,0
2018-08-09T05:08:57.890Z,5
2018-08-09T05:09:38.224Z,5
2018-08-09T05:10:18.787Z,5
2018-08-09T05:10:59.113Z,5
2018-08-09T05:11:39.737Z,5
2018-08-09T05:12:20.367Z,5
2018-08-09T05:13:00.932Z,5
2018-08-09T05:13:41.548Z,10
2018-08-09T05:14:21.816Z,10
2018-08-09T05:15:02.164Z,10
2018-08-09T05:15:43.571Z,10
2018-08-09T05:16:23.973Z,10
2018-08-09T05:17:04.394Z,10
2018-08-09T05:17:44.805Z,10
2018-08-09T05:18:25.304Z,10
2018-08-09T05:19:05.675Z,5
2018-08-09T05:19:46.298Z,5
2018-08-09T05:20:26.962Z,5
2018-08-09T05:21:07.878Z,5
2018-08-09T05:21:50.227Z,5
2018-08-09T05:22:32.343Z,5
2018-08-09T05:23:15.518Z,10
2018-08-09T05:23:55.823Z,10
2018-08-09T05:24:37.148Z,10
2018-08-09T05:25:21.724Z,10
2018-08-09T05:28:14.403Z,10
2018-08-09T05:29:29.764Z,10
2018-08-09T05:30:24.097Z,10
2018-08-09T05:31:16.406Z,10
2018-08-09T05:32:08.495Z,10
2018-08-09T05:33:01.055Z,10
2018-08-09T05:33:55.639Z,10
2018-08-09T05:34:50.466Z,10
2018-08-09T05:37:24.376Z,10
2018-08-09T05:38:16.528Z,10
2018-08-09T05:39:08.839Z,10
2018-08-09T05:40:01.997Z,15
2018-08-09T05:40:54.515Z,15
2018-08-09T05:41:47.151Z,20
2018-08-09T05:42:45.518Z,25
2018-08-09T05:43:57.754Z,20
2018-08-09T05:45:22.751Z,15
2018-08-09T05:46:32.189Z,15
2018-08-09T05:47:44.202Z,15
2018-08-09T05:48:55.634Z,15
2018-08-09T05:50:09.131Z,15
2018-08-09T05:51:21.617Z,15
2018-08-09T05:52:34.310Z,10
2018-08-09T05:53:43.356Z,10
2018-08-09T05:57:27.719Z,10
2018-08-09T05:58:39.150Z,15
2018-08-09T05:59:51.229Z,15
2018-08-09T06:01:18.346Z,10
2018-08-09T06:02:02.380Z,15
2018-08-09T06:02:42.899Z,15
2018-08-09T06:03:23.250Z,15
2018-08-09T06:04:03.693Z,15
2018-08-09T06:04:44.045Z,15
2018-08-09T06:05:24.498Z,15
2018-08-09T06:06:04.948Z,15
2018-08-09T06:06:45.277Z,15
2018-08-09T06:07:25.808Z,15
2018-08-09T06:08:06.118Z,15
2018-08-09T06:08:46.575Z,15
2018-08-09T06:09:26.920Z,15
2018-08-09T06:10:07.348Z,15
2018-08-09T06:10:47.810Z,15
2018-08-09T06:11:28.339Z,15
2018-08-09T06:12:08.754Z,15
2018-08-09T06:12:49.349Z,15
2018-08-09T06:13:29.613Z,15
2018-08-09T06:14:10.034Z,20
2018-08-09T06:14:50.386Z,20
2018-08-09T06:15:30.814Z,20
2018-08-09T06:16:11.978Z,20
2018-08-09T06:16:52.319Z,20
2018-08-09T06:17:32.735Z,20
2018-08-09T06:18:13.209Z,20
2018-08-09T06:18:53.822Z,25
2018-08-09T06:19:34.334Z,25
2018-08-09T06:20:14.906Z,25
2018-08-09T06:20:55.471Z,30
2018-08-09T06:21:35.822Z,30
2018-08-09T06:22:16.239Z,35
2018-08-09T06:22:56.775Z,35
2018-08-09T06:23:37.115Z,35
2018-08-09T06:24:17.673Z,45
2018-08-09T06:24:58.055Z,50
2018-08-09T06:25:38.434Z,60
2018-08-09T06:26:18.983Z,60
2018-08-09T06:26:59.273Z,65
2018-08-09T06:27:39.693Z,75
2018-08-09T06:28:20.152Z,80
2018-08-09T06:29:00.701Z,110
2018-08-09T06:29:41.809Z,235
2018-08-09T06:30:22.149Z,425
2018-08-09T06:31:04.226Z,380
2018-08-09T06:31:44.888Z,520
2018-08-09T06:32:25.329Z,350
2018-08-09T06:33:05.747Z,590
2018-08-09T06:33:46.350Z,610
2018-08-09T06:34:26.832Z,630
2018-08-09T06:35:07.212Z,645
2018-08-09T06:35:47.575Z,645
2018-08-09T06:36:28.025Z,650
2018-08-09T06:37:08.647Z,670
2018-08-09T06:37:49.279Z,675
2018-08-09T06:38:29.643Z,675
2018-08-09T06:39:10.043Z,595
2018-08-09T06:39:50.550Z,640
2018-08-09T06:40:31.683Z,260
2018-08-09T06:41:12.082Z,475
2018-08-09T06:41:52.557Z,675
2018-08-09T06:42:33.621Z,695
2018-08-09T06:43:14.055Z,715
2018-08-09T06:43:54.277Z,700
2018-08-09T06:44:34.804Z,695
2018-08-09T06:45:15.158Z,695
2018-08-09T06:45:55.896Z,690
2018-08-09T06:46:36.245Z,595
2018-08-09T06:47:16.660Z,650
2018-08-09T06:47:57.058Z,305
2018-08-09T06:48:37.488Z,750
2018-08-09T06:49:17.918Z,645
2018-08-09T06:49:58.277Z,330
2018-08-09T06:50:39.650Z,140
2018-08-09T06:51:19.512Z,365
2018-08-09T06:52:00.037Z,155
2018-08-09T06:52:40.495Z,165
2018-08-09T06:53:21.017Z,710
2018-08-09T06:54:01.595Z,165
2018-08-09T06:54:45.769Z,415
2018-08-09T06:55:24.642Z,390
2018-08-09T06:56:05.118Z,350
2018-08-09T06:56:45.475Z,355
2018-08-09T06:57:25.885Z,345
2018-08-09T06:58:06.519Z,375
2018-08-09T06:58:46.919Z,280
2018-08-09T06:59:27.627Z,145
2018-08-09T07:00:08.133Z,135
2018-08-09T07:00:48.747Z,280
2018-08-09T07:01:29.167Z,190
2018-08-09T07:02:09.941Z,145
2018-08-09T07:02:50.407Z,175
2018-08-09T07:03:31.455Z,145
2018-08-09T07:04:11.978Z,150
2018-08-09T07:04:52.581Z,120
2018-08-09T07:06:07.121Z,110
2018-08-09T07:06:48.454Z,125
2018-08-09T07:07:28.971Z,145
2018-08-09T07:08:09.313Z,145
2018-08-09T07:08:49.740Z,310
2018-08-09T07:09:30.149Z,130
2018-08-09T07:10:10.617Z,120
2018-08-09T07:10:50.956Z,305
2018-08-09T07:11:31.418Z,80
2018-08-09T07:12:11.817Z,75
2018-08-09T07:12:52.398Z,70
2018-08-09T07:13:32.800Z,70
2018-08-09T07:14:13.352Z,70
2018-08-09T07:14:53.722Z,70
2018-08-09T07:15:34.175Z,70
2018-08-09T07:16:14.716Z,75
2018-08-09T07:16:55.869Z,75
2018-08-09T07:17:36.876Z,110
2018-08-09T07:18:16.720Z,80
2018-08-09T07:18:57.265Z,80
2018-08-09T07:19:37.823Z,80
2018-08-09T07:20:18.363Z,80
2018-08-09T07:20:58.950Z,85
2018-08-09T07:21:39.315Z,155
2018-08-09T07:22:19.741Z,120
2018-08-09T07:23:00.173Z,130
2018-08-09T07:23:40.733Z,125
2018-08-09T07:24:21.176Z,205
2018-08-09T07:25:01.686Z,175
2018-08-09T07:25:42.040Z,415
2018-08-09T07:26:22.472Z,175
2018-08-09T07:27:02.847Z,265
2018-08-09T07:27:43.267Z,385
2018-08-09T07:28:24.141Z,370
2018-08-09T07:29:04.519Z,335
2018-08-09T07:29:45.049Z,400
2018-08-09T07:30:25.516Z,290
2018-08-09T07:31:05.912Z,280
2018-08-09T07:34:14.139Z,240
2018-08-09T07:35:23.475Z,255
2018-08-09T07:36:45.037Z,160
2018-08-09T07:38:03.594Z,185
2018-08-09T07:38:45.829Z,155
2018-08-09T07:39:26.382Z,155
2018-08-09T07:40:06.744Z,175
2018-08-09T07:40:47.237Z,165
2018-08-09T07:41:27.776Z,215
2018-08-09T07:42:08.244Z,215
2018-08-09T07:42:48.600Z,210
2018-08-09T07:43:29.359Z,210
2018-08-09T07:44:09.621Z,200
2018-08-09T07:44:50.557Z,195
2018-08-09T07:45:30.923Z,195
2018-08-09T07:46:11.407Z,195
2018-08-09T07:46:52.060Z,190
2018-08-09T07:47:32.896Z,190
2018-08-09T07:48:13.044Z,185
2018-08-09T07:48:53.460Z,185
2018-08-09T07:49:34.025Z,185
2018-08-09T07:50:14.301Z,185
2018-08-09T07:50:54.910Z,180
2018-08-09T07:51:35.257Z,180
2018-08-09T07:52:15.712Z,180
2018-08-09T07:52:56.170Z,180
2018-08-09T07:53:36.613Z,175
2018-08-09T07:54:17.134Z,175
2018-08-09T07:54:57.544Z,175
2018-08-09T07:55:38.894Z,170
2018-08-09T07:56:18.482Z,160
2018-08-09T07:56:59.198Z,160
2018-08-09T07:57:39.765Z,170
2018-08-09T07:58:20.114Z,160
2018-08-09T07:59:00.931Z,130
2018-08-09T07:59:41.486Z,140
2018-08-09T08:00:21.964Z,140
2018-08-09T08:01:02.542Z,145
2018-08-09T08:01:42.862Z,140
2018-08-09T08:02:23.224Z,140
2018-08-09T08:03:03.798Z,145
2018-08-09T08:03:44.205Z,145
2018-08-09T08:04:24.697Z,150
2018-08-09T08:05:05.258Z,160
2018-08-09T08:05:45.615Z,160
2018-08-09T08:06:26.100Z,165
2018-08-09T08:07:06.559Z,160
2018-08-09T08:07:46.903Z,155
2018-08-09T08:08:27.440Z,150
2018-08-09T08:09:07.933Z,155
2018-08-09T08:09:48.281Z,155
2018-08-09T08:10:28.780Z,155
2018-08-09T08:11:09.332Z,155
2018-08-09T08:11:49.761Z,160
2018-08-09T08:12:30.168Z,155
2018-08-09T08:13:10.626Z,155
2018-08-09T08:13:51.043Z,155
2018-08-09T08:14:32.430Z,150
2018-08-09T08:15:12.171Z,155
2018-08-09T08:15:52.615Z,150
2018-08-09T08:16:33.103Z,150
2018-08-09T08:17:13.543Z,115
2018-08-09T08:17:54.022Z,110
2018-08-09T08:18:34.483Z,95
2018-08-09T08:19:15.784Z,90
2018-08-09T08:19:56.956Z,90
2018-08-09T08:20:37.096Z,85
2018-08-09T08:21:18.354Z,85
2018-08-09T08:21:58.704Z,80
2018-08-09T08:22:39.464Z,75
2018-08-09T08:23:19.511Z,70
2018-08-09T08:24:00.579Z,65
2018-08-09T08:24:41.165Z,60
2018-08-09T08:25:21.508Z,60
2018-08-09T08:26:02.576Z,60
2018-08-09T08:26:43.075Z,65
2018-08-09T08:27:23.743Z,70
2018-08-09T08:28:04.165Z,70
2018-08-09T08:28:44.909Z,70
2018-08-09T08:29:25.369Z,65
2018-08-09T08:30:06.022Z,60
2018-08-09T08:30:46.543Z,60
2018-08-09T08:31:26.740Z,65
2018-08-09T08:32:07.148Z,65
2018-08-09T08:32:47.584Z,70
2018-08-09T08:33:28.132Z,70
2018-08-09T08:34:08.712Z,75
2018-08-09T08:34:49.249Z,75
2018-08-09T08:35:29.791Z,75
2018-08-09T08:36:10.777Z,70
2018-08-09T08:36:50.981Z,75
2018-08-09T08:37:32.442Z,80
2018-08-09T08:38:12.745Z,85
2018-08-09T08:38:53.593Z,85
2018-08-09T08:39:34.191Z,90
2018-08-09T08:40:14.699Z,80
2018-08-09T08:40:55.743Z,85
2018-08-09T08:41:37.058Z,85
2018-08-09T08:42:17.346Z,90
2018-08-09T08:42:58.000Z,85
2018-08-09T08:43:38.899Z,85
2018-08-09T08:44:19.922Z,90
2018-08-09T08:45:00.956Z,90
2018-08-09T08:45:41.060Z,105
2018-08-09T08:46:21.777Z,90
2018-08-09T08:47:02.947Z,85
2018-08-09T08:47:43.010Z,75
2018-08-09T08:48:23.563Z,70
2018-08-09T08:49:04.214Z,70
2018-08-09T08:49:44.569Z,75
2018-08-09T08:50:25.887Z,65
2018-08-09T08:51:06.541Z,65
2018-08-09T08:51:47.004Z,70
2018-08-09T08:52:27.406Z,70
2018-08-09T08:53:07.957Z,70
2018-08-09T08:53:48.339Z,65
2018-08-09T08:54:29.923Z,65
2018-08-09T08:55:10.155Z,55
2018-08-09T08:55:50.553Z,55
2018-08-09T08:56:30.989Z,50
2018-08-09T08:57:11.311Z,50
2018-08-09T08:57:51.795Z,50
2018-08-09T08:58:32.235Z,45
2018-08-09T08:59:13.455Z,45
2018-08-09T08:59:53.409Z,45
2018-08-09T09:00:33.976Z,45
2018-08-09T09:01:14.301Z,40
2018-08-09T09:01:55.430Z,40
2018-08-09T09:02:36.217Z,40
2018-08-09T09:03:16.791Z,40
2018-08-09T09:03:57.890Z,40
2018-08-09T09:04:38.567Z,40
2018-08-09T09:05:19.310Z,40
2018-08-09T09:06:00.113Z,40
2018-08-09T09:06:40.510Z,40
2018-08-09T09:07:21.120Z,40
2018-08-09T09:08:01.491Z,40
2018-08-09T09:08:42.517Z,35
2018-08-09T09:09:22.874Z,35
2018-08-09T09:10:03.667Z,35
2018-08-09T09:10:44.340Z,35
2018-08-09T09:11:25.026Z,40
2018-08-09T09:12:05.645Z,40
2018-08-09T09:12:46.573Z,40
2018-08-09T09:13:27.418Z,40
2018-08-09T09:14:08.462Z,40
2018-08-09T09:14:48.517Z,40
2018-08-09T09:15:29.976Z,40
2018-08-09T09:16:10.046Z,40
2018-08-09T09:16:51.594Z,40
2018-08-09T09:17:32.489Z,35
2018-08-09T09:18:12.410Z,35
2018-08-09T09:18:53.953Z,35
2018-08-09T09:19:34.175Z,35
2018-08-09T09:20:14.557Z,35
2018-08-09T09:20:54.997Z,35
2018-08-09T09:21:35.654Z,35
2018-08-09T09:22:16.134Z,40
2018-08-09T09:22:56.523Z,40
2018-08-09T09:23:37.220Z,40
2018-08-09T09:24:18.435Z,50
2018-08-09T09:30:07.407Z,100
2018-08-09T09:30:48.168Z,100
2018-08-09T09:31:33.054Z,110
2018-08-09T09:32:22.009Z,115
2018-08-09T09:33:09.056Z,115
2018-08-09T09:33:51.031Z,115
2018-08-09T09:34:40.012Z,110
2018-08-09T09:35:22.751Z,105
2018-08-09T09:36:13.403Z,105
2018-08-09T09:41:36.579Z,90
2018-08-09T09:42:16.324Z,90
2018-08-09T09:42:57.324Z,90
2018-08-09T09:43:39.686Z,90
2018-08-09T09:44:21.006Z,90
2018-08-09T09:45:01.789Z,90
2018-08-09T09:45:42.837Z,90
2018-08-09T09:46:25.284Z,90
2018-08-09T09:47:06.430Z,85
2018-08-09T09:47:47.454Z,85
2018-08-09T09:48:28.144Z,85
2018-08-09T09:49:09.885Z,85
2018-08-09T09:49:51.152Z,85
2018-08-09T09:50:33.355Z,85
2018-08-09T09:51:15.471Z,85
2018-08-09T09:51:56.422Z,85
2018-08-09T09:52:37.568Z,85
2018-08-09T09:53:18.380Z,85
2018-08-09T09:54:00.323Z,85
2018-08-09T09:54:41.163Z,85
2018-08-09T09:55:22.418Z,85
2018-08-09T09:59:16.269Z,85
2018-08-09T09:59:56.791Z,85
2018-08-09T10:00:38.295Z,85
2018-08-09T10:01:19.629Z,85
2018-08-09T10:02:02.948Z,90
2018-08-09T10:02:43.296Z,85
2018-08-09T10:03:25.167Z,85
2018-08-09T10:04:07.233Z,85
2018-08-09T10:04:48.124Z,75
2018-08-09T10:05:30.483Z,85
2018-08-09T10:06:12.508Z,80
2018-08-09T10:06:54.001Z,75
2018-08-09T10:07:35.514Z,85
2018-08-09T10:08:16.293Z,85
2018-08-09T10:09:01.876Z,70
2018-08-09T10:09:42.001Z,75
2018-08-09T10:10:23.665Z,70
2018-08-09T10:11:06.447Z,60
2018-08-09T10:11:48.231Z,60
2018-08-09T10:12:29.708Z,60
2018-08-09T10:13:10.496Z,60
2018-08-09T10:13:54.674Z,60
2018-08-09T10:14:34.667Z,55
2018-08-09T10:15:21.650Z,55
2018-08-09T10:16:05.201Z,50
2018-08-09T10:16:45.664Z,50
2018-08-09T10:17:27.304Z,55
2018-08-09T10:18:18.534Z,55
2018-08-09T10:19:00.025Z,55
2018-08-09T10:19:41.747Z,60
2018-08-09T11:08:32.849Z,55
2018-08-09T11:09:54.126Z,55
2018-08-09T11:11:05.228Z,65
2018-08-09T11:12:22.827Z,60
2018-08-09T11:13:37.772Z,50
2018-08-09T11:14:54.030Z,50
2018-08-09T11:16:09.103Z,55
2018-08-09T11:19:44.176Z,65
2018-08-09T11:20:58.148Z,65
2018-08-09T11:22:18.448Z,65
2018-08-09T11:23:29.931Z,65
2018-08-09T11:24:46.846Z,60
2018-08-09T11:26:10.561Z,60
2018-08-09T11:27:32.179Z,55
2018-08-09T11:28:53.521Z,55
2018-08-09T11:30:09.941Z,55
2018-08-09T11:31:35.376Z,50
2018-08-09T11:32:57.061Z,50
2018-08-09T11:34:18.560Z,45
2018-08-09T11:35:34.686Z,45
2018-08-09T11:36:47.837Z,45
2018-08-09T11:38:11.747Z,50
2018-08-09T11:39:33.919Z,50
2018-08-09T11:40:48.998Z,50
2018-08-09T11:45:31.831Z,45
2018-08-09T11:46:46.215Z,45
2018-08-09T11:48:00.742Z,40
2018-08-09T11:49:11.148Z,40
2018-08-09T11:50:28.591Z,40
2018-08-09T11:51:45.382Z,35
2018-08-09T11:53:03.203Z,35
2018-08-09T11:54:30.343Z,30
2018-08-09T11:58:41.264Z,20
2018-08-09T12:00:01.880Z,25
2018-08-09T12:01:41.323Z,20
2018-08-09T12:02:59.936Z,20
2018-08-09T12:03:59.208Z,15
2018-08-09T12:04:40.925Z,15
2018-08-09T12:05:22.207Z,15
2018-08-09T12:06:02.788Z,10
2018-08-09T12:06:46.994Z,10
2018-08-09T12:07:29.854Z,10
2018-08-09T12:08:10.401Z,10
2018-08-09T12:08:51.854Z,10
2018-08-09T12:09:32.350Z,10
2018-08-09T12:10:17.671Z,10
2018-08-09T12:13:29.084Z,5
2018-08-09T12:14:10.157Z,5
2018-08-09T12:14:51.329Z,5
2018-08-09T12:15:31.531Z,10
2018-08-09T12:16:12.432Z,10
2018-08-09T12:16:52.935Z,10
2018-08-09T12:17:34.270Z,10
2018-08-09T12:18:15.336Z,10
2018-08-09T12:18:55.725Z,15
2018-08-09T12:19:36.875Z,15
2018-08-09T12:20:18.383Z,15
2018-08-09T12:20:59.455Z,15
2018-08-09T12:21:45.436Z,15
2018-08-09T12:22:24.310Z,15
2018-08-09T12:23:05.133Z,15
2018-08-09T12:23:45.590Z,15
2018-08-09T12:24:26.255Z,10
2018-08-09T12:25:09.820Z,10
2018-08-09T12:25:51.412Z,15
2018-08-09T12:26:32.172Z,15